Terminal Aerodrome Forecast
Issued by NWS

Home | Current Version | Previous Version | Text Only | Print | Product List | Glossary On
Versions: 1 2 3 4 5 6 7 8 9 10 11 12 13 14
000
FTAK31 PAJN 312300
TAFAGY
TAF
PAGY 312323Z 0100/0124 21020G30KT P6SM VCSH SCT050 BKN060 OVC080
      TEMPO 0100/0103 -SHRA BKN045
     FM010600 21010G20KT P6SM VCSH OVC050
     FM010900 21010KT P6SM -RA FEW025 SCT040 OVC050
     FM011400 21010G20KT 6SM -RA BKN025 OVC040
     FM011900 21020G30KT 6SM -RA BR SCT025 OVC040
      AMD LTD TO CLD VIS AND WIND=

USA.gov is the U.S. government's official web portal to all federal, state and local government web resources and services.